Latest Weather Observations for Melbourne Airport

IDV60801

Issued at 3:22 pm EST Thursday 1 October 2020 (issued every 10 minutes, with the page automatically refreshed every 10 minutes)

About weather observations | Map of weather stations | Latest weather observations for VIC | Other Formats
Station Details ID: 086282 Name: MELBOURNE AIRPORT Lat: -37.67 Lon: 144.83 Height: 113.4 m
Data from the previous 72 hours. | See also: Recent months at Melbourne Airport
Date/Time
EST
Temp
°C
App
Temp
°C
Dew
Point
°C
Rel
Hum
%
Delta-T
°C
Wind Press
QNH
hPa
Press
MSL
hPa
Rain since
9am
mm
Dir  Spd
km/h
Gust
km/h
Spd
kts
Gust
kts
01/03:00pm 18.4 13.2 3.8 38 6.9 N 20 33 11 18 1015.8 1015.8 0.2
01/02:30pm 18.1 13.2 3.9 39 6.7 N 19 32 10 17 1015.9 1015.9 0.2
01/02:00pm 17.2 14.2 4.3 42 6.1 WNW 9 22 5 12 1016.2 1016.2 0.2
01/01:30pm 17.3 13.1 3.6 40 6.4 WSW 15 28 8 15 1016.4 1016.4 0.2
01/01:00pm 17.3 12.7 3.9 41 6.3 WNW 17 28 9 15 1016.5 1016.5 0.2
01/12:30pm 15.9 11.6 3.3 43 5.8 WSW 15 20 8 11 1016.6 1016.6 0.2
01/12:00pm 15.7 10.6 2.9 42 5.8 NW 19 32 10 17 1016.7 1016.7 0.0
01/11:30am 15.4 11.3 4.2 47 5.2 WNW 15 26 8 14 1016.8 1016.8 0.0
01/11:00am 15.9 10.9 4.7 47 5.3 NW 20 30 11 16 1017.0 1017.0 0.0
01/10:30am 14.4 9.2 3.4 47 5.0 W 20 30 11 16 1017.1 1017.1 0.0
01/10:00am 14.0 9.0 4.8 54 4.3 WNW 20 30 11 16 1017.3 1017.3 0.0
01/09:30am 13.3 7.9 4.4 55 4.1 WNW 22 35 12 19 1017.4 1017.5 0.0
01/09:00am 12.9 7.7 5.4 60 3.5 WNW 22 28 12 15 1017.3 1017.4 1.8
01/08:30am 11.9 7.3 5.7 66 2.9 WNW 19 28 10 15 1016.8 1016.9 1.8
01/08:00am 11.0 7.2 5.9 71 2.4 NW 15 20 8 11 1016.4 1016.5 1.8
01/07:30am 9.9 6.4 5.3 73 2.1 NW 13 17 7 9 1016.1 1016.2 1.8
01/07:00am 8.4 4.8 4.8 78 1.6 N 13 15 7 8 1015.7 1015.8 1.8
01/06:30am 5.8 1.6 3.9 88 0.8 N 15 15 8 8 1015.2 1015.3 1.8
01/06:00am 7.6 3.9 4.4 80 1.4 NNW 13 17 7 9 1014.6 1014.7 1.8
01/05:30am 7.5 3.0 4.3 80 1.4 NW 17 24 9 13 1014.2 1014.3 1.8
01/05:00am 7.6 3.9 4.2 79 1.5 NNW 13 17 7 9 1013.7 1013.8 1.8
01/04:30am 7.7 4.0 4.5 80 1.4 NNW 13 15 7 8 1013.4 1013.4 1.8
01/04:00am 7.7 4.5 5.0 83 1.2 NW 11 13 6 7 1013.2 1013.2 1.8
01/03:30am 7.8 3.9 5.4 85 1.1 NW 15 17 8 9 1013.0 1013.0 1.8
01/03:00am 6.9 3.3 5.1 88 0.8 WNW 13 15 7 8 1012.8 1012.8 1.8
01/02:30am 7.6 4.9 5.4 86 1.0 WNW 9 13 5 7 1012.6 1012.6 1.8
01/02:00am 8.1 5.0 5.4 83 1.2 NW 11 17 6 9 1012.4 1012.4 1.8
01/01:30am 9.5 6.8 5.6 76 1.8 NNW 9 11 5 6 1012.3 1012.3 1.8
01/01:00am 9.3 6.6 5.6 78 1.7 NW 9 13 5 7 1012.3 1012.3 1.8
01/12:30am 8.8 6.5 5.7 81 1.4 NW 7 11 4 6 1012.2 1012.2 1.8
01/12:00am 9.3 6.3 6.1 80 1.5 NW 11 13 6 7 1011.9 1011.9 1.8
 
Date/Time
EST
Temp
°C
App
Temp
°C
Dew
Point
°C
Rel
Hum
%
Delta-T
°C
Wind Press
QNH
hPa
Press
MSL
hPa
Rain since
9am
mm
Dir  Spd
km/h
Gust
km/h
Spd
kts
Gust
kts
30/11:30pm 10.3 7.1 6.9 79 1.6 W 13 19 7 10 1011.7 1011.7 1.8
30/11:00pm 11.1 8.1 7.6 79 1.7 WSW 13 19 7 10 1011.4 1011.4 1.8
30/10:30pm 10.7 5.2 7.4 80 1.6 W 26 32 14 17 1011.2 1011.2 1.8
30/10:00pm 11.0 7.1 9.4 90 0.8 SSW 20 33 11 18 1010.8 1010.8 1.8
30/09:30pm 11.8 9.7 9.6 86 1.1 NW 11 13 6 7 1010.1 1010.1 1.8
30/09:00pm 12.7 9.6 8.7 76 2.0 NNW 15 24 8 13 1009.6 1009.6 1.8
30/08:30pm 13.2 9.4 9.7 79 1.8 W 20 30 11 16 1010.0 1010.0 1.6
30/08:00pm 13.9 10.9 10.7 81 1.7 WNW 17 26 9 14 1009.6 1009.6 1.6
30/07:30pm 13.3 12.2 12.0 92 0.7 NW 9 11 5 6 1008.5 1008.6 1.6
30/07:00pm 14.4 12.8 11.6 83 1.5 N 11 19 6 10 1007.7 1007.8 1.6
30/06:30pm 15.1 11.8 11.0 76 2.2 N 19 28 10 15 1007.4 1007.5 0.0
30/06:00pm 15.4 11.9 10.9 74 2.4 N 20 28 11 15 1007.0 1007.1 0.0
30/05:30pm 15.7 11.6 10.2 70 2.9 N 22 28 12 15 1006.8 1006.9 0.0
30/05:00pm 16.1 12.4 10.1 67 3.2 N 20 28 11 15 1006.7 1006.8 0.0
30/04:30pm 16.2 11.4 10.2 67 3.2 N 26 33 14 18 1006.8 1006.9 0.0
30/04:00pm 16.5 11.2 9.7 64 3.6 N 28 41 15 22 1006.9 1007.0 0.0
30/03:30pm 16.9 10.7 9.3 61 4.0 N 32 44 17 24 1007.2 1007.3 0.0
30/03:00pm 17.1 10.6 9.1 59 4.2 N 33 44 18 24 1007.2 1007.3 0.0
30/02:30pm 17.2 9.8 8.5 56 4.5 N 37 50 20 27 1007.4 1007.5 0.0
30/02:05pm 18.6 11.8 9.1 54 5.0 N 35 54 19 29 1007.5 1007.6 0.0
30/02:00pm 17.8 10.8 8.6 55 4.8 N 35 50 19 27 1007.5 1007.6 0.0
30/01:30pm 17.3 9.7 8.9 57 4.4 N 39 54 21 29 1008.1 1008.2 0.0
30/01:00pm 17.3 10.4 8.9 57 4.4 N 35 54 19 29 1008.5 1008.6 0.0
30/12:57pm 17.4 10.9 9.0 58 4.4 N 33 52 18 28 1008.6 1008.7 0.0
30/12:30pm 17.7 12.0 9.8 60 4.2 N 30 41 16 22 1008.9 1009.0 0.0
30/12:00pm 16.5 10.2 9.0 61 3.9 N 32 50 17 27 1009.6 1009.6 0.0
30/11:59am 16.5 10.6 9.0 61 3.9 N 30 48 16 26 1009.6 1009.6 0.0
30/11:30am 15.9 9.8 9.6 66 3.3 N 32 43 17 23 1010.1 1010.1 0.0
30/11:16am 15.8 9.7 9.7 67 3.2 N 32 50 17 27 1010.4 1010.4 0.0
30/11:00am 14.8 9.0 9.4 70 2.8 N 30 37 16 20 1010.8 1010.8 0.0
30/10:30am 15.3 9.0 9.8 69 2.9 N 33 44 18 24 1011.2 1011.2 0.0
30/10:21am 15.1 8.4 9.7 70 2.8 N 35 54 19 29 1011.2 1011.2 0.0
30/10:00am 14.9 7.5 9.7 71 2.7 N 39 52 21 28 1011.3 1011.3 0.0
30/09:30am 14.8 7.5 10.2 74 2.4 NNE 39 52 21 28 1011.8 1011.8 0.0
30/09:00am 14.0 6.2 9.8 76 2.2 N 41 56 22 30 1011.9 1011.9 0.6
30/08:57am 14.2 7.3 10.2 77 2.1 NNE 37 56 20 30 1011.8 1011.8 0.6
30/08:30am 12.8 6.6 10.1 84 1.4 NNE 33 43 18 23 1012.2 1012.2 0.6
30/08:00am 11.9 7.4 10.2 89 0.9 NNE 24 33 13 18 1012.7 1012.7 0.6
30/07:30am 11.7 8.4 9.5 86 1.1 NNE 17 24 9 13 1013.1 1013.1 0.6
30/07:00am 12.0 7.2 9.0 82 1.5 NNE 24 32 13 17 1013.2 1013.2 0.4
30/06:30am 11.7 9.5 9.3 85 1.2 NE 11 15 6 8 1013.1 1013.1 0.2
30/06:00am 12.1 9.7 8.7 80 1.7 NE 11 13 6 7 1012.8 1012.8 0.2
30/05:30am 12.4 11.4 8.8 79 1.8 NW 4 9 2 5 1012.6 1012.6 0.0
30/05:00am 13.1 10.4 7.4 68 2.8 NNW 11 15 6 8 1012.9 1012.9 0.0
30/04:30am 13.8 9.4 6.6 62 3.5 NW 19 30 10 16 1013.1 1013.1 0.0
30/04:00am 14.0 9.9 6.1 59 3.8 NW 17 22 9 12 1012.8 1012.8 0.0
30/03:30am 14.5 9.7 5.7 55 4.2 N 20 28 11 15 1012.5 1012.5 0.0
30/03:00am 14.5 10.0 6.0 56 4.1 N 19 22 10 12 1012.9 1012.9 0.0
30/02:30am 14.3 10.6 6.5 59 3.8 N 15 20 8 11 1013.3 1013.3 0.0
30/02:00am 14.4 10.0 6.6 59 3.8 NNE 19 28 10 15 1013.8 1013.9 0.0
30/01:30am 14.9 9.8 6.2 56 4.2 NNE 22 30 12 16 1014.1 1014.2 0.0
30/01:00am 14.3 10.4 7.0 61 3.6 N 17 26 9 14 1014.5 1014.6 0.0
30/12:30am 14.2 11.1 7.1 62 3.5 NNE 13 19 7 10 1015.3 1015.4 0.0
30/12:00am 13.9 11.6 7.6 66 3.1 N 9 13 5 7 1015.6 1015.7 0.0
 
Date/Time
EST
Temp
°C
App
Temp
°C
Dew
Point
°C
Rel
Hum
%
Delta-T
°C
Wind Press
QNH
hPa
Press
MSL
hPa
Rain since
9am
mm
Dir  Spd
km/h
Gust
km/h
Spd
kts
Gust
kts
29/11:30pm 13.6 11.4 8.0 69 2.8 NNE 9 15 5 8 1016.1 1016.2 0.0
29/11:00pm 13.7 12.0 7.4 65 3.1 NNE 6 11 3 6 1016.2 1016.3 0.0
29/10:30pm 13.1 11.2 7.6 69 2.7 N 7 13 4 7 1016.3 1016.4 0.0
29/10:00pm 14.4 10.8 6.8 60 3.7 NE 15 19 8 10 1016.4 1016.5 0.0
29/09:30pm 11.1 8.0 7.4 78 1.8 NE 13 17 7 9 1016.6 1016.7 0.0
29/09:00pm 12.3 9.9 7.1 70 2.5 NE 9 13 5 7 1017.1 1017.2 0.0
29/08:30pm 13.5 10.4 7.4 66 3.0 ENE 13 15 7 8 1017.1 1017.2 0.0
29/08:00pm 13.9 10.7 6.9 62 3.4 ENE 13 15 7 8 1017.2 1017.3 0.0
29/07:30pm 14.6 10.5 6.3 57 4.0 NE 17 19 9 10 1017.4 1017.5 0.0
29/07:00pm 15.2 11.5 6.1 54 4.4 NNE 15 19 8 10 1017.4 1017.5 0.0
29/06:30pm 15.4 12.1 6.6 55 4.3 NNE 13 20 7 11 1017.7 1017.8 0.0
29/06:00pm 16.1 12.0 6.3 52 4.8 NNE 17 28 9 15 1017.5 1017.6 0.0
29/05:30pm 16.6 12.1 5.9 49 5.2 NNE 19 28 10 15 1017.4 1017.5 0.0
29/05:00pm 17.2 11.4 4.6 43 6.0 NNE 24 33 13 18 1017.5 1017.6 0.0
29/04:30pm 17.5 10.3 4.8 43 6.1 NNE 32 43 17 23 1017.2 1017.3 0.0
29/04:00pm 17.7 10.8 4.8 42 6.2 NNE 30 39 16 21 1017.3 1017.4 0.0
29/03:36pm 18.0 10.6 4.1 39 6.6 NNE 32 50 17 27 1017.7 1017.8 0.0
29/03:30pm 18.1 11.2 4.5 40 6.5 NNE 30 46 16 25 1017.8 1017.9 0.0
29/03:00pm 18.6 10.9 5.3 41 6.5 NNE 35 48 19 26 1018.1 1018.1 0.0
29/02:30pm 19.1 11.2 4.6 38 7.0 NNE 35 46 19 25 1018.4 1018.4 0.0
29/02:00pm 19.9 12.6 4.7 36 7.4 NNE 32 48 17 26 1019.1 1019.1 0.0
29/01:30pm 18.4 10.1 4.1 38 6.8 NNE 37 48 20 26 1019.8 1019.8 0.0
29/01:00pm 18.7 11.2 4.5 39 6.8 NNE 33 44 18 24 1020.6 1020.6 0.0
29/12:30pm 18.6 11.3 5.5 42 6.4 NNE 33 43 18 23 1021.0 1021.1 0.0
29/12:00pm 17.5 9.7 5.0 43 6.0 NNE 35 48 19 26 1021.6 1021.7 0.0
29/11:30am 16.9 9.0 4.4 43 5.9 NNE 35 46 19 25 1021.9 1022.0 0.0
29/11:00am 16.0 8.2 5.1 48 5.2 NNE 35 48 19 26 1022.5 1022.6 0.0
29/10:30am 16.1 9.0 5.5 49 5.1 NNE 32 43 17 23 1022.8 1022.9 0.0
29/10:00am 15.9 9.6 5.5 50 5.0 NNE 28 41 15 22 1022.9 1023.0 0.0
29/09:30am 15.0 10.0 6.3 56 4.2 NNE 22 30 12 16 1023.1 1023.2 0.0
29/09:00am 13.8 10.0 5.8 58 3.8 NNE 15 22 8 12 1023.7 1023.8 0.0
29/08:30am 11.2 7.9 6.3 72 2.3 NNE 13 15 7 8 1024.5 1024.6 0.0
29/08:00am 9.2 5.3 5.4 77 1.7 NNE 15 17 8 9 1025.1 1025.2 0.0
29/07:30am 6.3 3.4 4.4 88 0.8 NNE 9 13 5 7 1025.0 1025.1 0.0
29/07:00am 4.9 0.6 3.5 91 0.6 NNE 15 17 8 9 1024.9 1025.0 0.0
29/06:30am 4.0 -0.8 2.5 90 0.6 N 17 19 9 10 1024.7 1024.8 0.0
29/06:00am 2.7 -2.6 1.7 93 0.4 N 19 20 10 11 1024.1 1024.2 0.0
29/05:30am 3.5 -1.7 2.2 91 0.5 N 19 22 10 12 1024.1 1024.2 0.0
29/05:00am 2.7 -2.2 1.9 94 0.3 N 17 19 9 10 1023.8 1023.9 0.0
29/04:30am 2.5 -2.5 1.5 93 0.4 N 17 19 9 10 1023.5 1023.6 0.0
29/04:00am 2.4 -2.6 1.6 94 0.3 N 17 19 9 10 1023.8 1023.9 0.0
29/03:30am 2.5 -1.6 2.0 96 0.2 N 13 15 7 8 1024.1 1024.2 0.0
29/03:00am 2.7 -1.1 1.9 94 0.3 N 11 13 6 7 1024.3 1024.4 0.0
29/02:30am 3.0 -0.7 2.2 94 0.3 N 11 13 6 7 1024.3 1024.4 0.0
29/02:00am 3.2 -0.5 2.2 93 0.4 N 11 15 6 8 1024.7 1024.8 0.0
29/01:30am 3.0 -0.7 2.2 94 0.3 NNE 11 13 6 7 1025.4 1025.5 0.0
29/01:00am 4.1 1.3 2.9 92 0.5 NNW 7 9 4 5 1026.1 1026.2 0.0
29/12:30am 2.8 -0.2 2.0 94 0.3 SW 7 11 4 6 1026.2 1026.3 0.0
29/12:00am 4.1 0.9 2.9 92 0.5 SW 9 11 5 6 1026.2 1026.3 0.0
 
Date/Time
EST
Temp
°C
App
Temp
°C
Dew
Point
°C
Rel
Hum
%
Delta-T
°C
Wind Press
QNH
hPa
Press
MSL
hPa
Rain since
9am
mm
Dir  Spd
km/h
Gust
km/h
Spd
kts
Gust
kts
28/11:30pm 4.3 1.7 3.1 92 0.5 SW 6 9 3 5 1026.1 1026.2 0.0
28/11:00pm 4.3 1.5 3.3 93 0.4 SW 7 7 4 4 1026.4 1026.5 0.0
28/10:30pm 5.0 2.5 3.8 92 0.5 SW 6 9 3 5 1026.5 1026.6 0.0
28/10:00pm 5.2 3.8 3.8 91 0.6 CALM 0 0 0 0 1026.6 1026.7 0.0
28/09:30pm 6.5 4.1 4.4 86 0.9 SW 6 9 3 5 1026.7 1026.8 0.0
28/09:00pm 6.8 5.6 4.5 85 1.0 CALM 0 7 0 4 1027.1 1027.1 0.0
28/08:30pm 7.6 6.4 4.6 81 1.3 CALM 0 2 0 1 1026.7 1026.8 0.0
28/08:00pm 8.2 5.4 5.1 81 1.4 S 9 11 5 6 1026.7 1026.8 0.0
28/07:30pm 8.3 4.7 4.9 79 1.5 S 13 15 7 8 1026.8 1026.9 0.0
28/07:00pm 8.7 5.5 5.1 78 1.6 S 11 13 6 7 1026.6 1026.7 0.0
28/06:30pm 9.4 5.4 4.7 72 2.1 S 15 17 8 9 1026.4 1026.5 0.0
28/06:00pm 10.5 6.5 5.0 69 2.5 SSE 15 20 8 11 1026.2 1026.3 0.0
28/05:30pm 12.0 7.5 4.2 59 3.5 S 17 22 9 12 1026.1 1026.2 0.0
28/05:00pm 13.2 9.7 3.4 51 4.4 S 11 15 6 8 1025.7 1025.8 0.0
28/04:30pm 13.4 9.4 3.1 49 4.6 S 13 17 7 9 1026.0 1026.1 0.0
28/04:00pm 13.4 9.5 3.6 51 4.4 S 13 20 7 11 1026.0 1026.1 0.0
28/03:30pm 13.6 9.4 3.6 51 4.5 S 15 22 8 12 1026.1 1026.2 0.0

Other formats

Comma delimited format used in spreadsheet applications
http://www.bom.gov.au/fwo/IDV60801/IDV60801.94866.axf

JavaScript Object Notation format (JSON) in row-major order
http://www.bom.gov.au/fwo/IDV60801/IDV60801.94866.json

Data quality

Most of these data are generated automatically and are frequently updated. Quality checks on data are not normally performed. It is possible for incorrect values to appear. Refer to information at About Latest Weather Observations and please check the disclaimer before using these data.